Station Historical Data
Daily Summary for April 29, 2017 Units:  Metric    English   Both
« Previous Day
Next Day »
Daily Weekly Monthly Yearly Custom
  High: Low: Average:
Temperature: 16.7 °C 6.9 °C 12.1 °C
Dew Point: 11 °C 0.7 °C 6.6 °C
Humidity: 85% 59% 70%
Wind Speed: 17.7km/h 0km/h 3.9km/h
Wind Gust: 22.5km/h - -
Wind- - WSW
Pressure: 1024.6 hPa 1014.1 hPa -
Precipitation: 0 mm    
Historical Graphs
 
 
Tabular Data for April 29, 2017
Time Temperature Dew Point Pressure Wind Wind Speed Wind Gust Humidity Rainfall Rate (Hourly)
00:00 13.5 °C 8.6 °C 1015.1 hPa Calm     72% 0 mm
00:05 13.6 °C 8.6 °C 1015.1 hPa Calm   3.2 km/h 72% 0 mm
00:10 13.7 °C 8.8 °C 1015.1 hPa Calm   4.8 km/h 72% 0 mm
00:15 14.1 °C 8.9 °C 1015.1 hPa SSW 1.6 km/h 4.8 km/h 71% 0 mm
00:20 14.3 °C 8.9 °C 1014.8 hPa SSW 1.6 km/h 4.8 km/h 70% 0 mm
00:25 14.8 °C 9.2 °C 1014.8 hPa SSW 3.2 km/h 4.8 km/h 69% 0 mm
00:30 15.3 °C 9.2 °C 1014.8 hPa SSW 6.4 km/h 6.4 km/h 67% 0 mm
00:35 15.6 °C 9.1 °C 1014.8 hPa SSW 3.2 km/h 8 km/h 65% 0 mm
00:40 15.7 °C 8.9 °C 1014.8 hPa SSW 4.8 km/h 9.7 km/h 64% 0 mm
00:45 16.1 °C 9 °C 1015.1 hPa South 4.8 km/h 11.3 km/h 63% 0 mm
00:50 16.3 °C 9 °C 1015.1 hPa SSW 4.8 km/h 9.7 km/h 62% 0 mm
00:55 16.4 °C 9.1 °C 1015.1 hPa South 6.4 km/h 11.3 km/h 62% 0 mm
01:00 16.4 °C 9.1 °C 1015.1 hPa SSW 4.8 km/h 14.5 km/h 62% 0 mm
01:05 16.3 °C 9.1 °C 1015.1 hPa SSW 4.8 km/h 14.5 km/h 62% 0 mm
01:10 16.3 °C 9 °C 1015.1 hPa SSW 4.8 km/h 9.7 km/h 62% 0 mm
01:15 16.3 °C 9.1 °C 1015.1 hPa SSW 4.8 km/h 9.7 km/h 62% 0 mm
01:20 16.3 °C 9 °C 1015.1 hPa SSW 3.2 km/h 8 km/h 62% 0 mm
01:25 16.2 °C 9.1 °C 1014.8 hPa SSW 4.8 km/h 8 km/h 63% 0 mm
01:30 16.2 °C 9.1 °C 1014.8 hPa SSW 4.8 km/h 4.8 km/h 63% 0 mm
01:35 16.1 °C 9 °C 1014.8 hPa SSW 3.2 km/h 8 km/h 63% 0 mm
01:40 16 °C 8.9 °C 1015.1 hPa SSW 3.2 km/h 6.4 km/h 63% 0 mm
01:45 16 °C 9.2 °C 1015.1 hPa SSW 1.6 km/h 6.4 km/h 64% 0 mm
01:50 15.9 °C 9.1 °C 1015.1 hPa SW 4.8 km/h 11.3 km/h 64% 0 mm
01:55 16.1 °C 9 °C 1014.8 hPa SSW 3.2 km/h 9.7 km/h 63% 0 mm
02:00 16.3 °C 9.2 °C 1014.4 hPa SSW 4.8 km/h 11.3 km/h 63% 0 mm
02:05 16.4 °C 9.1 °C 1014.4 hPa SSW 4.8 km/h 11.3 km/h 62% 0 mm
02:10 16.6 °C 9.3 °C 1014.1 hPa SSW 4.8 km/h 12.9 km/h 62% 0 mm
02:15 16.6 °C 9.3 °C 1014.1 hPa SSW 4.8 km/h 12.9 km/h 62% 0 mm
02:20 16.7 °C 9.3 °C 1014.4 hPa SSW 4.8 km/h 11.3 km/h 62% 0 mm
02:25 16.6 °C 9.2 °C 1014.4 hPa SW 6.4 km/h 11.3 km/h 62% 0 mm
02:30 16.6 °C 9.5 °C 1014.4 hPa SSW 3.2 km/h 16.1 km/h 63% 0 mm
02:35 16.5 °C 9.9 °C 1014.4 hPa South 14.5 km/h 22.5 km/h 65% 0 mm
02:40 16.3 °C 10.2 °C 1014.8 hPa SW 3.2 km/h 22.5 km/h 67% 0 mm
02:45 16.1 °C 10.6 °C 1014.8 hPa WSW 17.7 km/h 19.3 km/h 70% 0 mm
02:50 15.9 °C 10.7 °C 1014.8 hPa WSW 9.7 km/h 17.7 km/h 71% 0 mm
02:55 15.8 °C 10.9 °C 1014.4 hPa SW 8 km/h 17.7 km/h 73% 0 mm
03:00 15.6 °C 11 °C 1014.4 hPa SW 8 km/h 17.7 km/h 74% 0 mm
03:05 15.5 °C 10.9 °C 1014.4 hPa SW 9.7 km/h 17.7 km/h 74% 0 mm
03:10 15.4 °C 10.8 °C 1014.4 hPa SW 8 km/h 17.7 km/h 74% 0 mm
03:15 15.4 °C 10.8 °C 1014.4 hPa WSW 12.9 km/h 17.7 km/h 74% 0 mm
03:20 15.3 °C 10.7 °C 1014.4 hPa WSW 6.4 km/h 17.7 km/h 74% 0 mm
03:25 15.4 °C 10.6 °C 1014.4 hPa WSW 8 km/h 17.7 km/h 73% 0 mm
03:30 15.4 °C 10.6 °C 1014.4 hPa WSW 6.4 km/h 12.9 km/h 73% 0 mm
03:35 15.4 °C 10.4 °C 1014.4 hPa WSW 6.4 km/h 17.7 km/h 72% 0 mm
03:40 15.3 °C 10.1 °C 1014.8 hPa West 11.3 km/h 12.9 km/h 71% 0 mm
03:45 15.2 °C 10 °C 1014.8 hPa WSW 6.4 km/h 14.5 km/h 71% 0 mm
03:50 15.1 °C 10.1 °C 1014.8 hPa SW 4.8 km/h 14.5 km/h 72% 0 mm
03:55 15.1 °C 9.8 °C 1014.8 hPa WSW 6.4 km/h 14.5 km/h 71% 0 mm
04:00 14.9 °C 9.7 °C 1014.8 hPa WSW 6.4 km/h 14.5 km/h 71% 0 mm
04:05 14.9 °C 9.7 °C 1014.8 hPa SW 4.8 km/h 16.1 km/h 71% 0 mm
04:10 14.9 °C 9.9 °C 1014.8 hPa WSW 14.5 km/h 14.5 km/h 72% 0 mm
04:15 14.9 °C 9.9 °C 1015.1 hPa WSW 6.4 km/h 16.1 km/h 72% 0 mm
04:20 15 °C 10.2 °C 1015.1 hPa SW 8 km/h 14.5 km/h 73% 0 mm
04:25 15 °C 10.2 °C 1015.1 hPa WSW 8 km/h 22.5 km/h 73% 0 mm
04:30 14.9 °C 10.3 °C 1015.1 hPa WSW 9.7 km/h 22.5 km/h 74% 0 mm
04:35 14.9 °C 10.3 °C 1015.5 hPa WSW 8 km/h 22.5 km/h 74% 0 mm
04:40 14.8 °C 10.4 °C 1015.5 hPa WSW 8 km/h 14.5 km/h 75% 0 mm
04:45 14.8 °C 10.6 °C 1015.5 hPa WSW 9.7 km/h 12.9 km/h 76% 0 mm
04:50 14.6 °C 10.4 °C 1015.5 hPa WSW 8 km/h 14.5 km/h 76% 0 mm
04:55 14.6 °C 10.4 °C 1015.5 hPa West 3.2 km/h 14.5 km/h 76% 0 mm
05:00 14.5 °C 10.5 °C 1015.1 hPa WSW 1.6 km/h 11.3 km/h 77% 0 mm
05:05 14.4 °C 10.4 °C 1015.1 hPa SW 8 km/h 12.9 km/h 77% 0 mm
05:10 14.3 °C 10.6 °C 1015.1 hPa WSW 4.8 km/h 16.1 km/h 78% 0 mm
05:15 14.2 °C 10.6 °C 1015.1 hPa WSW 6.4 km/h 12.9 km/h 79% 0 mm
05:20 14 °C 10.6 °C 1015.1 hPa WSW 6.4 km/h 12.9 km/h 80% 0 mm
05:25 13.8 °C 10.6 °C 1015.1 hPa WSW 6.4 km/h 11.3 km/h 81% 0 mm
05:30 13.7 °C 10.5 °C 1015.1 hPa SSW 4.8 km/h 11.3 km/h 81% 0 mm
05:35 13.4 °C 10.2 °C 1015.1 hPa SSW 4.8 km/h 14.5 km/h 81% 0 mm
05:40 13.2 °C 10.2 °C 1015.1 hPa SW 3.2 km/h 12.9 km/h 82% 0 mm
05:45 13 °C 10 °C 1015.1 hPa WSW 4.8 km/h 12.9 km/h 82% 0 mm
05:50 12.9 °C 9.9 °C 1015.5 hPa SW 6.4 km/h 14.5 km/h 82% 0 mm
05:55 12.7 °C 9.9 °C 1015.5 hPa SW 6.4 km/h 14.5 km/h 83% 0 mm
06:00 12.6 °C 9.7 °C 1015.5 hPa SW 4.8 km/h 8 km/h 83% 0 mm
06:05 12.4 °C 9.6 °C 1015.5 hPa WSW 4.8 km/h 9.7 km/h 83% 0 mm
06:10 12.4 °C 9.6 °C 1015.5 hPa SW 1.6 km/h 9.7 km/h 83% 0 mm
06:15 12.3 °C 9.7 °C 1015.5 hPa SW 3.2 km/h 9.7 km/h 84% 0 mm
06:20 12.3 °C 9.7 °C 1015.8 hPa SW 3.2 km/h 11.3 km/h 84% 0 mm
06:25 12.2 °C 9.6 °C 1015.8 hPa SW 3.2 km/h 8 km/h 84% 0 mm
06:30 12.1 °C 9.5 °C 1016.1 hPa WSW 4.8 km/h 8 km/h 84% 0 mm
06:35 12.1 °C 9.4 °C 1016.1 hPa Calm   8 km/h 84% 0 mm
06:40 12.1 °C 9.4 °C 1016.1 hPa SW 3.2 km/h 9.7 km/h 84% 0 mm
06:45 12 °C 9.6 °C 1016.5 hPa SW 3.2 km/h 9.7 km/h 85% 0 mm
06:50 11.9 °C 9.4 °C 1016.5 hPa SW 3.2 km/h 8 km/h 85% 0 mm
06:55 11.8 °C 9.4 °C 1016.5 hPa SW 3.2 km/h 9.7 km/h 85% 0 mm
07:00 11.8 °C 9.3 °C 1016.5 hPa WSW 4.8 km/h 9.7 km/h 85% 0 mm
07:05 11.7 °C 9.3 °C 1016.5 hPa WSW 4.8 km/h 12.9 km/h 85% 0 mm
07:10 11.8 °C 9.3 °C 1016.5 hPa WSW 4.8 km/h 11.3 km/h 85% 0 mm
07:15 11.7 °C 9.2 °C 1016.8 hPa SW 4.8 km/h 11.3 km/h 85% 0 mm
07:20 11.6 °C 9.2 °C 1016.5 hPa WSW 4.8 km/h 9.7 km/h 85% 0 mm
07:25 11.6 °C 9.2 °C 1016.8 hPa Calm   9.7 km/h 85% 0 mm
07:30 11.7 °C 9.2 °C 1016.8 hPa SW 3.2 km/h 8 km/h 85% 0 mm
07:35 11.7 °C 9.2 °C 1016.8 hPa SW 1.6 km/h 8 km/h 85% 0 mm
07:40 11.7 °C 9.3 °C 1016.8 hPa SW 3.2 km/h 8 km/h 85% 0 mm
07:45 11.8 °C 9.3 °C 1016.8 hPa SW 3.2 km/h 6.4 km/h 85% 0 mm
07:50 11.8 °C 9.3 °C 1017.2 hPa SW 3.2 km/h 6.4 km/h 85% 0 mm
07:55 11.8 °C 9.4 °C 1017.2 hPa SW 3.2 km/h 4.8 km/h 85% 0 mm
08:00 11.8 °C 9.4 °C 1017.5 hPa SW 6.4 km/h 8 km/h 85% 0 mm
08:05 11.8 °C 9.4 °C 1017.5 hPa Calm   9.7 km/h 85% 0 mm
08:10 11.9 °C 9.5 °C 1017.5 hPa SW 1.6 km/h 9.7 km/h 85% 0 mm
08:15 12.1 °C 9.6 °C 1017.5 hPa SW 1.6 km/h 4.8 km/h 85% 0 mm
08:20 12.1 °C 9.7 °C 1017.5 hPa Calm   4.8 km/h 85% 0 mm
08:25 12.2 °C 9.7 °C 1017.5 hPa Calm   3.2 km/h 85% 0 mm
08:30 12.3 °C 9.8 °C 1017.8 hPa SSW 1.6 km/h 1.6 km/h 85% 0 mm
08:35 12.2 °C 9.1 °C 1017.8 hPa NW 1.6 km/h 11.3 km/h 81% 0 mm
08:40 11.3 °C 7.3 °C 1018.2 hPa NNW 4.8 km/h 12.9 km/h 76% 0 mm
08:45 10.9 °C 6.9 °C 1018.5 hPa North 4.8 km/h 12.9 km/h 76% 0 mm
08:50 10.8 °C 6.7 °C 1018.5 hPa North 6.4 km/h 12.9 km/h 76% 0 mm
08:55 10.4 °C 6.2 °C 1018.8 hPa NNW 3.2 km/h 14.5 km/h 75% 0 mm
09:00 10.3 °C 6.1 °C 1018.8 hPa North 4.8 km/h 11.3 km/h 75% 0 mm
09:05 10.3 °C 6.1 °C 1018.8 hPa North 4.8 km/h 11.3 km/h 75% 0 mm
09:10 10.2 °C 6 °C 1018.8 hPa North 3.2 km/h 9.7 km/h 75% 0 mm
09:15 10.4 °C 6.2 °C 1019.2 hPa North 4.8 km/h 9.7 km/h 75% 0 mm
09:20 10.4 °C 6.2 °C 1019.2 hPa NNW 4.8 km/h 9.7 km/h 75% 0 mm
09:25 10.4 °C 5.9 °C 1019.2 hPa NNW 8 km/h 9.7 km/h 74% 0 mm
09:30 10.3 °C 5.7 °C 1019.2 hPa NNW 4.8 km/h 9.7 km/h 73% 0 mm
09:35 10.3 °C 5.5 °C 1019.2 hPa NNW 4.8 km/h 9.7 km/h 72% 0 mm
09:40 10.1 °C 5.3 °C 1019.2 hPa NW 6.4 km/h 16.1 km/h 72% 0 mm
09:45 10.2 °C 5.3 °C 1018.8 hPa NNE 4.8 km/h 14.5 km/h 72% 0 mm
09:50 10.4 °C 5.3 °C 1019.2 hPa North 1.6 km/h 12.9 km/h 71% 0 mm
09:55 10.4 °C 5.3 °C 1019.2 hPa NNW 6.4 km/h 14.5 km/h 71% 0 mm
10:00 10.3 °C 5.1 °C 1019.5 hPa NNW 4.8 km/h 11.3 km/h 70% 0 mm
10:05 10.4 °C 5.4 °C 1019.5 hPa NNW 4.8 km/h 11.3 km/h 71% 0 mm
10:10 10.6 °C 5.4 °C 1019.5 hPa NNW 4.8 km/h 6.4 km/h 70% 0 mm
10:15 10.7 °C 5.6 °C 1019.5 hPa NNW 3.2 km/h 6.4 km/h 71% 0 mm
10:20 10.7 °C 5.6 °C 1019.5 hPa NNW 1.6 km/h 4.8 km/h 71% 0 mm
10:25 10.6 °C 5.3 °C 1019.5 hPa NNW 3.2 km/h 6.4 km/h 70% 0 mm
10:30 10.6 °C 5.3 °C 1019.5 hPa NNW 3.2 km/h 6.4 km/h 70% 0 mm
10:35 10.6 °C 5.6 °C 1019.5 hPa NNW 1.6 km/h 6.4 km/h 71% 0 mm
10:40 10.6 °C 5.2 °C 1019.2 hPa NNW 6.4 km/h 8 km/h 69% 0 mm
10:45 10.6 °C 5.1 °C 1019.2 hPa NW 3.2 km/h 8 km/h 69% 0 mm
10:50 10.7 °C 5.4 °C 1019.5 hPa West 1.6 km/h 6.4 km/h 70% 0 mm
10:55 10.7 °C 5 °C 1019.5 hPa WNW 1.6 km/h 6.4 km/h 68% 0 mm
11:00 10.7 °C 5 °C 1019.5 hPa NNW 6.4 km/h 6.4 km/h 68% 0 mm
11:05 10.8 °C 5.2 °C 1019.5 hPa NW 4.8 km/h 11.3 km/h 68% 0 mm
11:10 11 °C 4.9 °C 1019.5 hPa NW 1.6 km/h 9.7 km/h 66% 0 mm
11:15 11.1 °C 4.7 °C 1019.5 hPa North 3.2 km/h 11.3 km/h 65% 0 mm
11:20 11.1 °C 4.9 °C 1019.5 hPa NW 8 km/h 9.7 km/h 66% 0 mm
11:25 11.1 °C 4.9 °C 1019.5 hPa North 3.2 km/h 9.7 km/h 66% 0 mm
11:30 11.1 °C 4.7 °C 1019.5 hPa NNW 4.8 km/h 9.7 km/h 65% 0 mm
11:35 11.1 °C 4.7 °C 1019.5 hPa NNW 3.2 km/h 8 km/h 65% 0 mm
11:40 11.1 °C 4.9 °C 1019.2 hPa NW 1.6 km/h 6.4 km/h 66% 0 mm
11:45 11.6 °C 5.4 °C 1019.2 hPa NW 1.6 km/h 6.4 km/h 66% 0 mm
11:50 11.8 °C 5.2 °C 1019.2 hPa NNW 6.4 km/h 9.7 km/h 64% 0 mm
11:55 11.7 °C 5.5 °C 1019.2 hPa NE 4.8 km/h 8 km/h 66% 0 mm
12:00 11.8 °C 5.2 °C 1018.8 hPa NNE 3.2 km/h 11.3 km/h 64% 0 mm
12:05 12.1 °C 5.4 °C 1018.8 hPa North 4.8 km/h 11.3 km/h 64% 0 mm
12:10 12.3 °C 5.2 °C 1018.8 hPa North 4.8 km/h 11.3 km/h 62% 0 mm
12:15 12.2 °C 5.6 °C 1018.8 hPa North 4.8 km/h 9.7 km/h 64% 0 mm
12:20 12.3 °C 5.7 °C 1018.8 hPa North 4.8 km/h 9.7 km/h 64% 0 mm
12:25 12.3 °C 5.7 °C 1019.2 hPa North 4.8 km/h 9.7 km/h 64% 0 mm
12:30 12.2 °C 5.8 °C 1019.2 hPa North 1.6 km/h 6.4 km/h 65% 0 mm
12:35 12.6 °C 6 °C 1019.9 hPa NW 3.2 km/h 9.7 km/h 64% 0 mm
12:40 12.6 °C 5.7 °C 1020.2 hPa WNW 4.8 km/h 9.7 km/h 63% 0 mm
12:45 12.3 °C 5.5 °C 1020.2 hPa WNW 4.8 km/h 9.7 km/h 63% 0 mm
12:50 12.2 °C 5.4 °C 1020.5 hPa WNW 3.2 km/h 12.9 km/h 63% 0 mm
12:55 12.2 °C 5.1 °C 1020.5 hPa WNW 4.8 km/h 11.3 km/h 62% 0 mm
13:00 12.2 °C 5.1 °C 1020.5 hPa West 6.4 km/h 12.9 km/h 62% 0 mm
13:05 12 °C 4.4 °C 1020.9 hPa WNW 6.4 km/h 16.1 km/h 60% 0 mm
13:10 11.8 °C 4.8 °C 1020.9 hPa WNW 8 km/h 16.1 km/h 62% 0 mm
13:15 11.6 °C 4.6 °C 1020.9 hPa WNW 6.4 km/h 14.5 km/h 62% 0 mm
13:20 11.6 °C 4.3 °C 1020.9 hPa WNW 6.4 km/h 14.5 km/h 61% 0 mm
13:25 11.7 °C 4.2 °C 1020.9 hPa WNW 4.8 km/h 9.7 km/h 60% 0 mm
13:30 11.8 °C 4.6 °C 1020.9 hPa NW 4.8 km/h 9.7 km/h 61% 0 mm
13:35 11.7 °C 4.2 °C 1020.9 hPa NW 4.8 km/h 14.5 km/h 60% 0 mm
13:40 11.6 °C 4.6 °C 1020.9 hPa Calm   12.9 km/h 62% 0 mm
13:45 11.8 °C 4.5 °C 1020.9 hPa West 6.4 km/h 12.9 km/h 61% 0 mm
13:50 11.8 °C 4.3 °C 1020.9 hPa West 4.8 km/h 11.3 km/h 60% 0 mm
13:55 12 °C 4.4 °C 1020.9 hPa NW 3.2 km/h 9.7 km/h 60% 0 mm
14:00 11.8 °C 4.1 °C 1020.9 hPa NW 6.4 km/h 12.9 km/h 59% 0 mm
14:05 11.8 °C 4 °C 1021.2 hPa WNW 4.8 km/h 12.9 km/h 59% 0 mm
14:10 11.9 °C 4.4 °C 1021.6 hPa West 4.8 km/h 9.7 km/h 60% 0 mm
14:15 11.7 °C 3.9 °C 1021.9 hPa West 4.8 km/h 9.7 km/h 59% 0 mm
14:20 11.7 °C 4.2 °C 1021.6 hPa WSW 6.4 km/h 11.3 km/h 60% 0 mm
14:25 11.6 °C 3.8 °C 1021.6 hPa West 4.8 km/h 9.7 km/h 59% 0 mm
14:30 11.7 °C 4.4 °C 1021.6 hPa West 1.6 km/h 6.4 km/h 61% 0 mm
14:35 11.7 °C 4.2 °C 1021.6 hPa West 3.2 km/h 9.7 km/h 60% 0 mm
14:40 11.6 °C 3.9 °C 1021.6 hPa West 4.8 km/h 9.7 km/h 59% 0 mm
14:45 11.6 °C 4.3 °C 1021.6 hPa West 4.8 km/h 9.7 km/h 61% 0 mm
14:50 11.4 °C 4.2 °C 1021.6 hPa WNW 1.6 km/h 11.3 km/h 61% 0 mm
14:55 11.4 °C 3.9 °C 1021.2 hPa WNW 1.6 km/h 6.4 km/h 60% 0 mm
15:00 11.6 °C 4.3 °C 1021.6 hPa WNW 3.2 km/h 8 km/h 61% 0 mm
15:05 11.6 °C 4.3 °C 1021.6 hPa WNW 3.2 km/h 8 km/h 61% 0 mm
15:10 11.6 °C 4.1 °C 1021.6 hPa WNW 3.2 km/h 6.4 km/h 60% 0 mm
15:15 11.6 °C 4.3 °C 1021.6 hPa WNW 4.8 km/h 8 km/h 61% 0 mm
15:20 11.6 °C 4.3 °C 1021.6 hPa Calm   4.8 km/h 61% 0 mm
15:25 11.7 °C 4.2 °C 1021.6 hPa WNW 1.6 km/h 6.4 km/h 60% 0 mm
15:30 11.6 °C 4.1 °C 1021.6 hPa WNW 1.6 km/h 4.8 km/h 60% 0 mm
15:35 11.6 °C 4.6 °C 1021.6 hPa WNW 1.6 km/h 6.4 km/h 62% 0 mm
15:40 11.6 °C 4.3 °C 1021.6 hPa WNW 3.2 km/h 6.4 km/h 61% 0 mm
15:45 11.6 °C 3.8 °C 1021.6 hPa WNW 3.2 km/h 4.8 km/h 59% 0 mm
15:50 11.6 °C 4.3 °C 1021.9 hPa WNW 3.2 km/h 4.8 km/h 61% 0 mm
15:55 11.6 °C 4.1 °C 1021.6 hPa WNW 1.6 km/h 4.8 km/h 60% 0 mm
16:00 11.7 °C 4.6 °C 1021.6 hPa WNW 1.6 km/h 4.8 km/h 62% 0 mm
16:05 11.8 °C 5 °C 1021.6 hPa West 1.6 km/h 4.8 km/h 63% 0 mm
16:10 11.9 °C 5.1 °C 1021.6 hPa SW 1.6 km/h 6.4 km/h 63% 0 mm
16:15 11.8 °C 5.2 °C 1021.6 hPa SSW 6.4 km/h 8 km/h 64% 0 mm
16:20 11.7 °C 4.8 °C 1021.2 hPa SSW 3.2 km/h 8 km/h 63% 0 mm
16:25 11.8 °C 5.4 °C 1021.2 hPa Calm   8 km/h 65% 0 mm
16:30 11.9 °C 5.5 °C 1021.2 hPa WSW 1.6 km/h 6.4 km/h 65% 0 mm
16:35 11.8 °C 5.2 °C 1021.2 hPa WSW 3.2 km/h 6.4 km/h 64% 0 mm
16:40 11.7 °C 5.3 °C 1021.2 hPa WSW 3.2 km/h 8 km/h 65% 0 mm
16:45 12 °C 5.8 °C 1021.2 hPa WSW 3.2 km/h 8 km/h 66% 0 mm
16:50 11.9 °C 5.3 °C 1021.2 hPa SSW 3.2 km/h 8 km/h 64% 0 mm
16:55 12.1 °C 5.9 °C 1021.2 hPa South 4.8 km/h 6.4 km/h 66% 0 mm
17:00 12 °C 5.4 °C 1021.2 hPa SSW 1.6 km/h 6.4 km/h 64% 0 mm
17:05 12.2 °C 5.6 °C 1021.2 hPa SSW 3.2 km/h 6.4 km/h 64% 0 mm
17:10 12.2 °C 5.8 °C 1021.2 hPa SW 3.2 km/h 6.4 km/h 65% 0 mm
17:15 12.1 °C 5.5 °C 1021.2 hPa SW 3.2 km/h 6.4 km/h 64% 0 mm
17:20 12.2 °C 5.8 °C 1021.2 hPa SW 3.2 km/h 8 km/h 65% 0 mm
17:25 12.2 °C 5.6 °C 1021.2 hPa SW 4.8 km/h 8 km/h 64% 0 mm
17:30 12.2 °C 5.6 °C 1021.2 hPa WSW 3.2 km/h 8 km/h 64% 0 mm
17:35 12.3 °C 5.9 °C 1021.2 hPa SW 6.4 km/h 8 km/h 65% 0 mm
17:40 12.1 °C 5.5 °C 1021.2 hPa SSW 6.4 km/h 9.7 km/h 64% 0 mm
17:45 12 °C 5.2 °C 1021.2 hPa SW 4.8 km/h 8 km/h 63% 0 mm
17:50 12.1 °C 5.7 °C 1021.2 hPa SW 4.8 km/h 8 km/h 65% 0 mm
17:55 12.1 °C 5.2 °C 1021.2 hPa Calm   8 km/h 63% 0 mm
18:00 12.3 °C 5.9 °C 1021.2 hPa SW 3.2 km/h 8 km/h 65% 0 mm
18:05 12.2 °C 5.8 °C 1021.2 hPa WSW 1.6 km/h 6.4 km/h 65% 0 mm
18:10 12.2 °C 5.6 °C 1021.6 hPa WSW 3.2 km/h 6.4 km/h 64% 0 mm
18:15 12.1 °C 5.7 °C 1021.6 hPa WSW 3.2 km/h 6.4 km/h 65% 0 mm
18:20 12.1 °C 5.7 °C 1021.6 hPa WSW 3.2 km/h 6.4 km/h 65% 0 mm
18:25 11.9 °C 5.6 °C 1021.9 hPa SW 1.6 km/h 8 km/h 65% 0 mm
18:30 11.9 °C 5.8 °C 1021.9 hPa WSW 4.8 km/h 8 km/h 66% 0 mm
18:35 11.9 °C 5.7 °C 1021.9 hPa WSW 1.6 km/h 6.4 km/h 66% 0 mm
18:40 11.9 °C 5.7 °C 1021.6 hPa West 3.2 km/h 4.8 km/h 66% 0 mm
18:45 11.8 °C 5.6 °C 1021.6 hPa Calm   4.8 km/h 66% 0 mm
18:50 11.8 °C 5.6 °C 1021.6 hPa Calm   1.6 km/h 66% 0 mm
18:55 11.8 °C 5.7 °C 1021.6 hPa Calm     66% 0 mm
19:00 11.8 °C 5.6 °C 1021.9 hPa Calm     66% 0 mm
19:05 11.7 °C 5.6 °C 1021.9 hPa West 3.2 km/h 4.8 km/h 66% 0 mm
19:10 11.7 °C 5.8 °C 1022.2 hPa WSW 3.2 km/h 8 km/h 67% 0 mm
19:15 11.7 °C 5.7 °C 1022.2 hPa SW 4.8 km/h 9.7 km/h 67% 0 mm
19:20 11.6 °C 5.7 °C 1022.6 hPa SSW 6.4 km/h 11.3 km/h 67% 0 mm
19:25 11.4 °C 5.5 °C 1022.6 hPa WSW 1.6 km/h 9.7 km/h 67% 0 mm
19:30 11.4 °C 5.5 °C 1022.6 hPa WSW 3.2 km/h 9.7 km/h 67% 0 mm
19:35 11.3 °C 5.4 °C 1022.6 hPa SW 3.2 km/h 9.7 km/h 67% 0 mm
19:40 11.2 °C 5.3 °C 1022.6 hPa SW 4.8 km/h 9.7 km/h 67% 0 mm
19:45 11.2 °C 5.3 °C 1022.6 hPa SW 4.8 km/h 8 km/h 67% 0 mm
19:50 11.1 °C 5.2 °C 1022.6 hPa Calm   11.3 km/h 67% 0 mm
19:55 11.1 °C 5.4 °C 1022.9 hPa WSW 3.2 km/h 9.7 km/h 68% 0 mm
20:00 11 °C 5.3 °C 1022.6 hPa SW 3.2 km/h 9.7 km/h 68% 0 mm
20:05 10.9 °C 5.2 °C 1022.6 hPa SW 3.2 km/h 8 km/h 68% 0 mm
20:10 10.8 °C 5.4 °C 1022.6 hPa WSW 3.2 km/h 8 km/h 69% 0 mm
20:15 10.8 °C 5.3 °C 1022.6 hPa West 3.2 km/h 6.4 km/h 69% 0 mm
20:20 10.7 °C 5.4 °C 1022.2 hPa WSW 1.6 km/h 4.8 km/h 70% 0 mm
20:25 10.4 °C 5.2 °C 1022.2 hPa Calm   1.6 km/h 70% 0 mm
20:30 10.4 °C 5.3 °C 1022.2 hPa WSW 1.6 km/h 4.8 km/h 71% 0 mm
20:35 10.3 °C 5.2 °C 1022.6 hPa WSW 1.6 km/h 4.8 km/h 71% 0 mm
20:40 10.2 °C 5.2 °C 1022.9 hPa WSW 1.6 km/h 4.8 km/h 71% 0 mm
20:45 10.2 °C 5.3 °C 1022.9 hPa WSW 1.6 km/h 6.4 km/h 72% 0 mm
20:50 10.1 °C 5.2 °C 1023.6 hPa West 1.6 km/h 8 km/h 72% 0 mm
20:55 10.1 °C 5.2 °C 1023.6 hPa SW 8 km/h 8 km/h 72% 0 mm
21:00 9.9 °C 5.3 °C 1023.6 hPa WSW 3.2 km/h 9.7 km/h 73% 0 mm
21:05 9.8 °C 5.2 °C 1023.6 hPa West 3.2 km/h 9.7 km/h 73% 0 mm
21:10 9.7 °C 5.3 °C 1023.6 hPa West 1.6 km/h 3.2 km/h 74% 0 mm
21:15 9.5 °C 5.3 °C 1023.9 hPa West 1.6 km/h 3.2 km/h 75% 0 mm
21:20 9.3 °C 5.1 °C 1023.9 hPa Calm   4.8 km/h 75% 0 mm
21:25 9.3 °C 5.1 °C 1023.9 hPa Calm   4.8 km/h 75% 0 mm
21:30 9.2 °C 5 °C 1023.9 hPa Calm   4.8 km/h 75% 0 mm
21:35 9.3 °C 5.1 °C 1023.9 hPa Calm   4.8 km/h 75% 0 mm
21:40 9.1 °C 5.1 °C 1023.9 hPa Calm   3.2 km/h 76% 0 mm
21:45 8.9 °C 5.1 °C 1023.9 hPa Calm   3.2 km/h 77% 0 mm
21:50 8.8 °C 5 °C 1024.3 hPa Calm     77% 0 mm
21:55 8.8 °C 5 °C 1024.3 hPa Calm     77% 0 mm
22:00 8.7 °C 4.9 °C 1024.3 hPa Calm     77% 0 mm
22:05 8.6 °C 4.9 °C 1024.3 hPa Calm     78% 0 mm
22:10 8.3 °C 4.8 °C 1024.3 hPa Calm     79% 0 mm
22:15 8.1 °C 4.8 °C 1024.3 hPa Calm     80% 0 mm
22:20 8 °C 4.8 °C 1024.3 hPa West 1.6 km/h 4.8 km/h 80% 0 mm
22:25 8.2 °C 4.2 °C 1024.6 hPa North 3.2 km/h 8 km/h 76% 0 mm
22:30 8.2 °C 2.9 °C 1024.6 hPa North 1.6 km/h 11.3 km/h 69% 0 mm
22:35 8.2 °C 2.2 °C 1024.6 hPa NNW 3.2 km/h 9.7 km/h 66% 0 mm
22:40 8.2 °C 1.6 °C 1024.6 hPa NNW 8 km/h 9.7 km/h 63% 0 mm
22:45 8.1 °C 1.4 °C 1024.6 hPa NNW 4.8 km/h 9.7 km/h 63% 0 mm
22:50 7.9 °C 1.3 °C 1024.6 hPa NNW 3.2 km/h 9.7 km/h 63% 0 mm
22:55 7.8 °C 0.9 °C 1024.6 hPa NNW 3.2 km/h 8 km/h 62% 0 mm
23:00 7.8 °C 0.9 °C 1024.6 hPa North 3.2 km/h 9.7 km/h 62% 0 mm
23:05 7.7 °C 0.8 °C 1024.6 hPa NNW 1.6 km/h 4.8 km/h 62% 0 mm
23:10 7.6 °C 0.9 °C 1024.3 hPa Calm   4.8 km/h 63% 0 mm
23:15 7.4 °C 0.8 °C 1024.3 hPa NNW 1.6 km/h 4.8 km/h 63% 0 mm
23:20 7.3 °C 0.7 °C 1023.9 hPa Calm     63% 0 mm
23:25 7.3 °C 0.7 °C 1023.9 hPa NE 4.8 km/h 6.4 km/h 63% 0 mm
23:30 7.3 °C 0.7 °C 1024.3 hPa NE 1.6 km/h 4.8 km/h 63% 0 mm
23:35 7.3 °C 0.7 °C 1024.6 hPa Calm   3.2 km/h 63% 0 mm
23:40 7 °C 0.9 °C 1024.6 hPa NE 3.2 km/h 3.2 km/h 65% 0 mm
23:45 7 °C 0.9 °C 1024.3 hPa NE 1.6 km/h 8 km/h 65% 0 mm
23:50 7 °C 0.9 °C 1024.3 hPa NNE 3.2 km/h 8 km/h 65% 0 mm
23:55 6.9 °C 0.8 °C 1024.3 hPa North 1.6 km/h 6.4 km/h 65% 0 mm
Buffalo, New York, USA
Compliments of Weather Underground - 2.5 mb